createdAt,value
2022-12-09T00:01:23.663Z,96659.50
2022-12-09T00:03:52.556Z,96649.88
2022-12-09T00:06:23.894Z,96648.16
2022-12-09T00:08:55.662Z,96656.97
2022-12-09T00:11:23.743Z,96654.91
2022-12-09T00:13:56.272Z,96645.56
2022-12-09T00:16:32.689Z,96646.00
2022-12-09T00:19:00.078Z,96659.63
2022-12-09T00:21:32.577Z,96649.69
2022-12-09T00:24:04.721Z,96640.59
2022-12-09T00:26:32.629Z,96649.41
2022-12-09T00:29:02.187Z,96642.59
2022-12-09T00:31:33.179Z,96640.34
2022-12-09T00:34:09.549Z,96642.66
2022-12-09T00:36:39.653Z,96642.66
2022-12-09T00:39:08.170Z,96640.88
2022-12-09T00:41:35.248Z,96638.88
2022-12-09T00:44:02.379Z,96640.41
2022-12-09T00:46:33.117Z,96642.97
2022-12-09T00:49:02.025Z,96643.72
2022-12-09T00:51:30.525Z,96642.72
2022-12-09T00:53:58.306Z,96651.34
2022-12-09T00:56:31.430Z,96650.06
2022-12-09T00:58:59.426Z,96636.47
2022-12-09T01:01:27.614Z,96633.91
2022-12-09T01:03:55.323Z,96643.78
2022-12-09T01:06:25.551Z,96633.69
2022-12-09T01:08:52.933Z,96636.47
2022-12-09T01:11:24.451Z,96639.75
2022-12-09T01:13:52.976Z,96645.31
2022-12-09T01:16:28.605Z,96643.78
2022-12-09T01:19:00.258Z,96649.63
2022-12-09T01:21:29.589Z,96640.25
2022-12-09T01:23:56.784Z,96650.63
2022-12-09T01:26:24.299Z,96652.88
2022-12-09T01:28:53.594Z,96646.84
2022-12-09T01:31:23.592Z,96644.31
2022-12-09T01:33:51.845Z,96642.53
2022-12-09T01:36:22.715Z,96637.53
2022-12-09T01:38:50.155Z,96641.81
2022-12-09T01:41:18.263Z,96633.00
2022-12-09T01:43:46.625Z,96635.03
2022-12-09T01:46:14.763Z,96632.25
2022-12-09T01:48:44.980Z,96630.22
2022-12-09T01:51:15.801Z,96620.38
2022-12-09T01:53:45.927Z,96625.16
2022-12-09T01:56:24.471Z,96623.38
2022-12-09T01:58:53.187Z,96627.19
2022-12-09T02:01:21.801Z,96615.81
2022-12-09T02:03:49.558Z,96617.06
2022-12-09T02:06:19.101Z,96613.53
2022-12-09T02:08:48.344Z,96618.09
2022-12-09T02:11:27.226Z,96619.84
2022-12-09T02:14:15.860Z,96615.06
2022-12-09T02:17:10.105Z,96601.66
2022-12-09T02:19:43.937Z,96606.72
2022-12-09T02:22:15.627Z,96615.81
2022-12-09T02:24:59.203Z,96609.75
2022-12-09T02:27:43.333Z,96612.81
2022-12-09T02:30:23.874Z,96605.44
2022-12-09T02:33:15.789Z,96611.53
2022-12-09T02:35:55.095Z,96619.13
2022-12-09T02:38:28.388Z,96611.28
2022-12-09T02:41:08.303Z,96606.22
2022-12-09T02:43:49.398Z,96603.19
2022-12-09T02:46:20.888Z,96590.53
2022-12-09T02:48:53.516Z,96591.78
2022-12-09T02:51:24.604Z,96585.00
2022-12-09T02:53:57.325Z,96578.69
2022-12-09T02:56:27.209Z,96580.66
2022-12-09T02:58:54.646Z,96576.09
2022-12-09T03:01:38.575Z,96577.84
2022-12-09T03:04:07.736Z,96578.88
2022-12-09T03:06:51.578Z,96574.56
2022-12-09T03:09:25.821Z,96576.09
2022-12-09T03:11:56.301Z,96581.38
2022-12-09T03:14:33.012Z,96570.78
2022-12-09T03:17:15.176Z,96571.50
2022-12-09T03:20:15.474Z,96571.44
2022-12-09T03:22:48.713Z,96579.75
2022-12-09T03:25:31.473Z,96569.63
2022-12-09T03:28:12.141Z,96570.13
2022-12-09T03:30:45.410Z,96568.13
2022-12-09T03:33:16.478Z,96561.81
2022-12-09T03:35:50.724Z,96564.28
2022-12-09T03:38:21.766Z,96557.75
2022-12-09T03:40:54.573Z,96553.19
2022-12-09T03:43:25.647Z,96554.72
2022-12-09T03:45:56.568Z,96564.28
2022-12-09T03:48:24.340Z,96563.28
2022-12-09T03:51:00.683Z,96554.72
2022-12-09T03:53:40.837Z,96541.78
2022-12-09T03:56:21.182Z,96549.13
2022-12-09T03:58:50.619Z,96546.56
2022-12-09T04:01:21.420Z,96544.81
2022-12-09T04:03:52.101Z,96546.34
2022-12-09T04:06:19.608Z,96551.66
2022-12-09T04:08:47.256Z,96548.88
2022-12-09T04:11:15.935Z,96552.44
2022-12-09T04:13:42.887Z,96560.81
2022-12-09T04:16:10.154Z,96547.91
2022-12-09T04:18:38.650Z,96550.19
2022-12-09T04:21:08.590Z,96536.31
2022-12-09T04:23:42.281Z,96549.97
2022-12-09T04:26:18.144Z,96537.34
2022-12-09T04:28:45.233Z,96540.88
2022-12-09T04:31:14.949Z,96525.97
2022-12-09T04:33:43.411Z,96532.28
2022-12-09T04:36:14.605Z,96534.81
2022-12-09T04:38:42.253Z,96537.31
2022-12-09T04:41:09.965Z,96538.31
2022-12-09T04:43:37.800Z,96537.53
2022-12-09T04:46:07.383Z,96535.75
2022-12-09T04:48:35.110Z,96537.25
2022-12-09T04:51:03.967Z,96538.31
2022-12-09T04:53:31.673Z,96533.22
2022-12-09T04:56:02.950Z,96537.25
2022-12-09T04:58:30.561Z,96523.38
2022-12-09T05:01:00.332Z,96534.22
2022-12-09T05:03:28.791Z,96527.88
2022-12-09T05:05:55.972Z,96535.47
2022-12-09T05:08:28.392Z,96533.47
2022-12-09T05:11:00.156Z,96539.78
2022-12-09T05:13:28.557Z,96538.25
2022-12-09T05:16:15.395Z,96530.69
2022-12-09T05:18:44.282Z,96529.66
2022-12-09T05:21:14.480Z,96527.63
2022-12-09T05:23:42.291Z,96541.22
2022-12-09T05:26:12.684Z,96534.09
2022-12-09T05:28:40.325Z,96531.75
2022-12-09T05:31:12.477Z,96543.56
2022-12-09T05:33:39.685Z,96531.41
2022-12-09T05:36:12.426Z,96531.84
2022-12-09T05:38:41.047Z,96536.09
2022-12-09T05:41:09.095Z,96524.19
2022-12-09T05:43:37.601Z,96528.50
2022-12-09T05:46:08.601Z,96525.16
2022-12-09T05:48:36.878Z,96521.34
2022-12-09T05:51:13.674Z,96528.66
2022-12-09T05:53:40.803Z,96527.41
2022-12-09T05:56:08.302Z,96523.38
2022-12-09T05:58:40.294Z,96519.34
2022-12-09T06:01:10.777Z,96517.34
2022-12-09T06:03:39.785Z,96509.78
2022-12-09T06:06:14.862Z,96504.72
2022-12-09T06:08:46.596Z,96513.81
2022-12-09T06:11:20.920Z,96512.31
2022-12-09T06:13:49.703Z,96511.75
2022-12-09T06:16:20.690Z,96507.94
2022-12-09T06:18:49.408Z,96510.22
2022-12-09T06:21:19.932Z,96504.94
2022-12-09T06:23:48.285Z,96502.16
2022-12-09T06:26:22.296Z,96501.22
2022-12-09T06:28:50.845Z,96507.00
2022-12-09T06:31:20.530Z,96497.69
2022-12-09T06:33:57.705Z,96498.69
2022-12-09T06:36:29.603Z,96503.47
2022-12-09T06:39:01.802Z,96502.22
2022-12-09T06:41:33.378Z,96489.91
2022-12-09T06:44:00.803Z,96491.44
2022-12-09T06:46:29.564Z,96486.34
2022-12-09T06:48:56.879Z,96481.56
2022-12-09T06:51:25.436Z,96495.44
2022-12-09T06:53:54.465Z,96496.22
2022-12-09T06:56:22.459Z,96486.84
2022-12-09T06:58:50.607Z,96493.91
2022-12-09T07:01:23.740Z,96480.53
2022-12-09T07:03:53.837Z,96483.84
2022-12-09T07:06:28.261Z,96477.81
2022-12-09T07:08:57.548Z,96471.50
2022-12-09T07:11:25.722Z,96482.38
2022-12-09T07:13:53.491Z,96491.72
2022-12-09T07:16:20.998Z,96487.72
2022-12-09T07:18:48.586Z,96489.22
2022-12-09T07:21:18.237Z,96481.19
2022-12-09T07:23:46.622Z,96479.16
2022-12-09T07:26:14.387Z,96484.97
2022-12-09T07:28:42.902Z,96473.41
2022-12-09T07:31:22.348Z,96481.44
2022-12-09T07:33:50.846Z,96482.97
2022-12-09T07:36:21.543Z,96483.47
2022-12-09T07:38:54.676Z,96490.75
2022-12-09T07:41:21.762Z,96482.16
2022-12-09T07:43:50.376Z,96479.13
2022-12-09T07:46:21.676Z,96479.66
2022-12-09T07:48:50.320Z,96479.41
2022-12-09T07:51:17.800Z,96486.72
2022-12-09T07:53:45.985Z,96486.72
2022-12-09T07:56:15.657Z,96485.19
2022-12-09T07:58:44.605Z,96492.53
2022-12-09T08:01:15.569Z,96500.09
2022-12-09T08:03:43.505Z,96491.50
2022-12-09T08:06:16.133Z,96496.28
2022-12-09T08:08:45.215Z,96491.28
2022-12-09T08:11:19.127Z,96489.00
2022-12-09T08:13:47.534Z,96484.97
2022-12-09T08:16:17.639Z,96488.78
2022-12-09T08:18:45.526Z,96481.22
2022-12-09T08:21:18.939Z,96479.69
2022-12-09T08:23:46.466Z,96489.56
2022-12-09T08:26:16.128Z,96491.16
2022-12-09T08:28:44.398Z,96481.78
2022-12-09T08:31:15.502Z,96493.97
2022-12-09T08:33:43.994Z,96489.44
2022-12-09T08:36:21.001Z,96478.06
2022-12-09T08:38:48.735Z,96468.00
2022-12-09T08:41:20.137Z,96476.81
2022-12-09T08:43:48.440Z,96468.25
2022-12-09T08:46:16.441Z,96468.00
2022-12-09T08:48:44.180Z,96466.75
2022-12-09T08:51:12.559Z,96474.09
2022-12-09T08:53:40.763Z,96472.34
2022-12-09T08:56:12.882Z,96477.41
2022-12-09T08:58:42.366Z,96467.06
2022-12-09T09:01:22.075Z,96459.25
2022-12-09T09:03:51.739Z,96465.09
2022-12-09T09:06:23.985Z,96453.75
2022-12-09T09:08:52.354Z,96460.34
2022-12-09T09:11:20.913Z,96447.78
2022-12-09T09:13:51.779Z,96450.06
2022-12-09T09:16:22.539Z,96447.50
2022-12-09T09:18:51.607Z,96452.09
2022-12-09T09:21:24.179Z,96446.81
2022-12-09T09:23:51.922Z,96441.00
2022-12-09T09:26:21.995Z,96442.78
2022-12-09T09:28:50.240Z,96428.16
2022-12-09T09:31:20.482Z,96437.53
2022-12-09T09:33:49.317Z,96430.50
2022-12-09T09:36:21.028Z,96421.19
2022-12-09T09:38:53.917Z,96427.81
2022-12-09T09:41:41.758Z,96427.59
2022-12-09T09:44:24.194Z,96401.53
2022-12-09T09:46:54.413Z,96414.19
2022-12-09T09:49:21.682Z,96410.19
2022-12-09T09:51:49.941Z,96407.16
2022-12-09T09:54:17.411Z,96398.56
2022-12-09T09:56:49.239Z,96387.97
2022-12-09T09:59:25.522Z,96395.56
2022-12-09T10:02:13.058Z,96381.41
2022-12-09T10:05:13.312Z,96392.00
2022-12-09T10:07:41.052Z,96389.72
2022-12-09T10:10:28.411Z,96377.84
2022-12-09T10:13:18.234Z,96387.69
2022-12-09T10:16:07.544Z,96380.84
2022-12-09T10:18:47.179Z,96380.84
2022-12-09T10:21:20.237Z,96384.91
2022-12-09T10:23:49.847Z,96375.28
2022-12-09T10:26:25.661Z,96380.09
2022-12-09T10:29:05.751Z,96374.53
2022-12-09T10:31:32.917Z,96371.75
2022-12-09T10:34:01.264Z,96362.91
2022-12-09T10:36:35.497Z,96376.81
2022-12-09T10:39:05.325Z,96377.09
2022-12-09T10:42:20.204Z,96368.97
2022-12-09T10:44:49.092Z,96369.50
2022-12-09T10:47:28.562Z,96373.56
2022-12-09T10:49:58.509Z,96374.06
2022-12-09T10:52:32.454Z,96372.03
2022-12-09T10:54:59.619Z,96370.28
2022-12-09T10:57:29.753Z,96373.31
2022-12-09T11:00:02.033Z,96374.81
2022-12-09T11:02:32.937Z,96364.97
2022-12-09T11:05:25.791Z,96360.41
2022-12-09T11:07:56.238Z,96362.47
2022-12-09T11:10:26.816Z,96371.28
2022-12-09T11:13:02.314Z,96365.22
2022-12-09T11:15:55.533Z,96362.94
2022-12-09T11:18:30.151Z,96359.41
2022-12-09T11:21:00.978Z,96366.22
2022-12-09T11:23:28.989Z,96356.63
2022-12-09T11:25:59.448Z,96360.41
2022-12-09T11:28:31.953Z,96357.63
2022-12-09T11:33:57.888Z,96354.59
2022-12-09T11:36:35.357Z,96356.63
2022-12-09T11:39:34.839Z,96349.56
2022-12-09T11:42:17.434Z,96364.22
2022-12-09T11:45:04.720Z,96360.69
2022-12-09T11:48:12.844Z,96359.91
2022-12-09T11:50:33.333Z,96343.22
2022-12-09T11:53:12.943Z,96343.50
2022-12-09T11:56:07.230Z,96345.50
2022-12-09T11:58:48.419Z,96338.19
2022-12-09T12:04:35.200Z,96327.31
2022-12-09T12:07:07.759Z,96333.13
2022-12-09T12:09:40.512Z,96327.56
2022-12-09T12:12:24.052Z,96324.78
2022-12-09T12:14:51.894Z,96320.25
2022-12-09T12:17:32.540Z,96323.25
2022-12-09T12:20:03.990Z,96318.47
2022-12-09T12:22:54.336Z,96324.00
2022-12-09T12:25:31.846Z,96324.56
2022-12-09T12:28:10.327Z,96321.75
2022-12-09T12:30:45.018Z,96313.66
2022-12-09T12:36:47.505Z,96318.47
2022-12-09T12:39:55.027Z,96320.22
2022-12-09T12:42:31.993Z,96320.75
2022-12-09T12:45:43.172Z,96315.19
2022-12-09T12:48:21.634Z,96326.78
2022-12-09T12:51:07.005Z,96324.78
2022-12-09T12:54:19.478Z,96309.84
2022-12-09T12:57:18.836Z,96308.38
2022-12-09T13:00:01.286Z,96303.81
2022-12-09T13:02:35.344Z,96310.63
2022-12-09T13:05:12.780Z,96305.56
2022-12-09T13:08:01.730Z,96292.16
2022-12-09T13:11:02.687Z,96285.81
2022-12-09T13:13:38.774Z,96295.91
2022-12-09T13:16:36.907Z,96297.22
2022-12-09T13:19:19.418Z,96294.44
2022-12-09T13:21:47.200Z,96295.44
2022-12-09T13:24:27.271Z,96295.91
2022-12-09T13:26:59.279Z,96297.19
2022-12-09T13:29:38.613Z,96301.97
2022-12-09T13:32:20.392Z,96303.00
2022-12-09T13:34:54.455Z,96294.66
2022-12-09T13:37:44.657Z,96293.91
2022-12-09T13:40:20.703Z,96297.22
2022-12-09T13:43:09.779Z,96298.00
2022-12-09T13:45:42.785Z,96295.22
2022-12-09T13:48:17.528Z,96286.63
2022-12-09T13:51:05.278Z,96286.13
2022-12-09T13:53:42.640Z,96289.66
2022-12-09T13:56:26.325Z,96290.44
2022-12-09T13:59:14.766Z,96287.66
2022-12-09T14:01:41.635Z,96287.38
2022-12-09T14:04:11.543Z,96280.31
2022-12-09T14:06:51.846Z,96285.13
2022-12-09T14:09:45.091Z,96275.00
2022-12-09T14:12:16.937Z,96279.81
2022-12-09T14:14:43.879Z,96277.03
2022-12-09T14:17:40.961Z,96275.78
2022-12-09T14:20:25.865Z,96276.03
2022-12-09T14:23:15.815Z,96267.94
2022-12-09T14:25:56.270Z,96277.31
2022-12-09T14:28:36.605Z,96272.75
2022-12-09T14:31:08.702Z,96276.53
2022-12-09T14:33:42.736Z,96281.56
2022-12-09T14:36:17.424Z,96286.88
2022-12-09T14:39:22.370Z,96283.56
2022-12-09T14:41:54.045Z,96285.88
2022-12-09T14:44:39.885Z,96267.41
2022-12-09T14:47:19.996Z,96280.78
2022-12-09T14:49:49.434Z,96274.22
2022-12-09T14:52:25.474Z,96269.41
2022-12-09T14:54:54.753Z,96282.53
2022-12-09T14:57:34.651Z,96285.06
2022-12-09T15:00:02.826Z,96287.84
2022-12-09T15:02:32.174Z,96282.03
2022-12-09T15:05:01.534Z,96281.75
2022-12-09T15:07:33.595Z,96280.75
2022-12-09T15:10:04.337Z,96283.25
2022-12-09T15:12:50.376Z,96287.75
2022-12-09T15:15:32.676Z,96279.41
2022-12-09T15:18:06.481Z,96293.81
2022-12-09T15:20:40.517Z,96296.31
2022-12-09T15:23:16.450Z,96295.03
2022-12-09T15:25:48.716Z,96300.31
2022-12-09T15:28:26.337Z,96299.28
2022-12-09T15:30:57.525Z,96300.78
2022-12-09T15:33:25.429Z,96309.38
2022-12-09T15:36:09.102Z,96296.25
2022-12-09T15:38:41.299Z,96293.94
2022-12-09T15:44:25.906Z,96303.50
2022-12-09T15:46:55.930Z,96311.56
2022-12-09T15:49:29.497Z,96308.75
2022-12-09T15:51:56.767Z,96308.94
2022-12-09T15:54:29.052Z,96309.66
2022-12-09T15:56:59.573Z,96316.72
2022-12-09T15:59:43.407Z,96311.72
2022-12-09T16:02:15.517Z,96318.28
2022-12-09T16:04:49.182Z,96314.72
2022-12-09T16:07:20.276Z,96315.72
2022-12-09T16:10:04.122Z,96314.72
2022-12-09T16:12:34.696Z,96309.19
2022-12-09T16:15:05.024Z,96309.19
2022-12-09T16:17:38.414Z,96305.94
2022-12-09T16:20:45.816Z,96307.94
2022-12-09T16:23:25.626Z,96305.69
2022-12-09T16:26:03.149Z,96305.41
2022-12-09T16:28:33.527Z,96302.34
2022-12-09T16:31:04.069Z,96311.19
2022-12-09T16:33:38.806Z,96305.66
2022-12-09T16:36:07.628Z,96303.59
2022-12-09T16:38:37.016Z,96297.56
2022-12-09T16:41:08.926Z,96286.44
2022-12-09T16:43:36.790Z,96290.22
2022-12-09T16:46:13.456Z,96297.53
2022-12-09T16:48:42.723Z,96297.00
2022-12-09T16:51:12.678Z,96297.00
2022-12-09T16:53:50.081Z,96295.22
2022-12-09T16:56:29.127Z,96297.44
2022-12-09T16:58:57.687Z,96295.66
2022-12-09T17:01:33.877Z,96294.41
2022-12-09T17:04:16.300Z,96298.91
2022-12-09T17:06:44.228Z,96300.63
2022-12-09T17:09:12.157Z,96304.41
2022-12-09T17:11:42.888Z,96302.63
2022-12-09T17:14:14.258Z,96302.84
2022-12-09T17:16:41.246Z,96310.88
2022-12-09T17:19:13.128Z,96300.25
2022-12-09T17:21:40.084Z,96304.75
2022-12-09T17:24:07.543Z,96311.81
2022-12-09T17:26:35.766Z,96306.75
2022-12-09T17:29:03.120Z,96321.84
2022-12-09T17:31:30.227Z,96318.28
2022-12-09T17:33:58.713Z,96323.06
2022-12-09T17:36:26.188Z,96330.38
2022-12-09T17:38:53.039Z,96323.19
2022-12-09T17:41:23.626Z,96324.66
2022-12-09T17:43:50.662Z,96334.75
2022-12-09T17:46:19.731Z,96332.75
2022-12-09T17:48:46.866Z,96336.78
2022-12-09T17:51:18.084Z,96326.66
2022-12-09T17:53:47.026Z,96325.16
2022-12-09T17:56:20.841Z,96338.72
2022-12-09T17:58:48.934Z,96338.19
2022-12-09T18:01:31.965Z,96347.72
2022-12-09T18:04:06.200Z,96351.69
2022-12-09T18:06:36.318Z,96346.84
2022-12-09T18:09:05.905Z,96352.38
2022-12-09T18:11:33.593Z,96343.75
2022-12-09T18:14:00.711Z,96347.78
2022-12-09T18:16:28.763Z,96346.75
2022-12-09T18:19:01.815Z,96344.69
2022-12-09T18:21:29.842Z,96353.25
2022-12-09T18:23:56.932Z,96350.97
2022-12-09T18:26:28.673Z,96352.16
2022-12-09T18:28:58.736Z,96353.59
2022-12-09T18:31:26.146Z,96358.66
2022-12-09T18:33:53.422Z,96360.19
2022-12-09T18:36:27.796Z,96359.13
2022-12-09T18:38:55.472Z,96362.88
2022-12-09T18:41:30.402Z,96358.28
2022-12-09T18:43:59.435Z,96360.59
2022-12-09T18:46:33.136Z,96354.03
2022-12-09T18:49:13.463Z,96359.06
2022-12-09T18:51:42.289Z,96369.56
2022-12-09T18:54:14.170Z,96357.75
2022-12-09T18:56:41.179Z,96371.03
2022-12-09T18:59:10.631Z,96368.47
2022-12-09T19:01:41.490Z,96372.69
2022-12-09T19:04:16.031Z,96362.81
2022-12-09T19:06:46.962Z,96363.00
2022-12-09T19:09:20.455Z,96373.88
2022-12-09T19:11:49.112Z,96371.59
2022-12-09T19:14:18.670Z,96369.28
2022-12-09T19:16:46.915Z,96377.88
2022-12-09T19:19:17.870Z,96370.25
2022-12-09T19:21:46.283Z,96367.03
2022-12-09T19:24:22.857Z,96376.28
2022-12-09T19:26:50.114Z,96368.41
2022-12-09T19:29:18.363Z,96377.91
2022-12-09T19:31:49.474Z,96373.38
2022-12-09T19:34:21.083Z,96365.00
2022-12-09T19:36:49.922Z,96374.34
2022-12-09T19:39:22.168Z,96376.81
2022-12-09T19:41:49.781Z,96384.06
2022-12-09T19:44:37.327Z,96370.72
2022-12-09T19:47:06.637Z,96383.31
2022-12-09T19:49:33.594Z,96373.03
2022-12-09T19:52:04.188Z,96370.16
2022-12-09T19:54:31.200Z,96382.75
2022-12-09T19:56:58.138Z,96382.25
2022-12-09T19:59:26.691Z,96382.47
2022-12-09T20:01:54.294Z,96396.00
2022-12-09T20:07:11.722Z,96383.13
2022-12-09T20:09:40.453Z,96376.84
2022-12-09T20:12:07.806Z,96384.88
2022-12-09T20:14:34.901Z,96394.19
2022-12-09T20:17:01.860Z,96379.13
2022-12-09T20:19:29.284Z,96387.72
2022-12-09T20:21:56.399Z,96386.75
2022-12-09T20:24:23.411Z,96394.56
2022-12-09T20:26:50.723Z,96395.31
2022-12-09T20:29:17.614Z,96393.03
2022-12-09T20:31:45.526Z,96399.34
2022-12-09T20:34:16.264Z,96399.50
2022-12-09T20:36:44.950Z,96386.56
2022-12-09T20:39:21.103Z,96399.91
2022-12-09T20:41:48.575Z,96392.38
2022-12-09T20:44:18.054Z,96393.63
2022-12-09T20:46:47.783Z,96402.97
2022-12-09T20:49:14.977Z,96390.09
2022-12-09T20:51:45.407Z,96395.16
2022-12-09T20:54:13.653Z,96389.34
2022-12-09T20:56:41.108Z,96412.59
2022-12-09T20:59:11.072Z,96408.00
2022-12-09T21:01:39.943Z,96404.47
2022-12-09T21:04:08.743Z,96406.50
2022-12-09T21:06:38.895Z,96416.59
2022-12-09T21:09:09.590Z,96423.34
2022-12-09T21:11:37.754Z,96425.63
2022-12-09T21:14:07.107Z,96426.41
2022-12-09T21:16:38.927Z,96417.16
2022-12-09T21:19:07.562Z,96411.31
2022-12-09T21:21:37.716Z,96399.34
2022-12-09T21:24:06.363Z,96419.50
2022-12-09T21:26:33.372Z,96410.94
2022-12-09T21:29:05.725Z,96414.94
2022-12-09T21:31:36.596Z,96410.84
2022-12-09T21:34:05.798Z,96405.78
2022-12-09T21:36:36.157Z,96414.09
2022-12-09T21:39:04.451Z,96421.63
2022-12-09T21:41:34.813Z,96414.09
2022-12-09T21:44:02.385Z,96411.63
2022-12-09T21:46:35.740Z,96414.19
2022-12-09T21:49:07.148Z,96416.47
2022-12-09T21:51:34.939Z,96403.13
2022-12-09T21:54:02.309Z,96412.75
2022-12-09T21:56:31.381Z,96407.50
2022-12-09T21:58:59.279Z,96408.44
2022-12-09T22:01:33.200Z,96415.97
2022-12-09T22:04:01.304Z,96422.00
2022-12-09T22:06:29.934Z,96416.47
2022-12-09T22:08:59.843Z,96417.41
2022-12-09T22:11:29.683Z,96426.00
2022-12-09T22:13:58.864Z,96417.41
2022-12-09T22:16:30.350Z,96419.72
2022-12-09T22:18:59.966Z,96424.47
2022-12-09T22:21:30.695Z,96418.69
2022-12-09T22:24:00.891Z,96415.72
2022-12-09T22:26:28.835Z,96420.25
2022-12-09T22:28:58.395Z,96418.56
2022-12-09T22:31:29.592Z,96416.63
2022-12-09T22:34:00.624Z,96416.41
2022-12-09T22:36:27.670Z,96416.91
2022-12-09T22:38:55.024Z,96410.88
2022-12-09T22:41:24.220Z,96422.72
2022-12-09T22:43:51.890Z,96417.19
2022-12-09T22:46:21.549Z,96424.53
2022-12-09T22:48:49.276Z,96419.75
2022-12-09T22:51:20.717Z,96428.78
2022-12-09T22:53:51.972Z,96423.69
2022-12-09T22:56:19.830Z,96437.97
2022-12-09T22:58:47.909Z,96433.88
2022-12-09T23:01:19.761Z,96449.22
2022-12-09T23:03:47.415Z,96452.28
2022-12-09T23:06:14.752Z,96443.69
2022-12-09T23:08:43.365Z,96452.28
2022-12-09T23:11:17.509Z,96454.56
2022-12-09T23:13:44.628Z,96432.94
2022-12-09T23:16:14.649Z,96447.31
2022-12-09T23:18:42.130Z,96458.38
2022-12-09T23:21:18.737Z,96457.63
2022-12-09T23:23:46.372Z,96455.13
2022-12-09T23:26:17.715Z,96461.69
2022-12-09T23:28:50.359Z,96461.97
2022-12-09T23:31:20.852Z,96456.94
2022-12-09T23:33:49.248Z,96455.50
2022-12-09T23:36:19.176Z,96451.22
2022-12-09T23:38:48.448Z,96453.00
2022-12-09T23:41:17.878Z,96454.22
2022-12-09T23:43:46.351Z,96449.00
2022-12-09T23:46:26.494Z,96463.13
2022-12-09T23:48:55.831Z,96451.28
2022-12-09T23:51:29.296Z,96452.63
2022-12-09T23:53:58.876Z,96467.94
2022-12-09T23:56:28.843Z,96464.16
2022-12-09T23:59:02.163Z,96457.16
